Time;durP1;ratioP1;P1;durP2;ratioP2;P2;SDS_P1;SDS_P2;PMS_P1;PMS_P2;Temp;Humidity;BMP_temperature;BMP_pressure;BME280_temperature;BME280_humidity;BME280_pressure;Samples;Min_cycle;Max_cycle;Signal;HPM_P1;HPM_P2
2022/12/04 00:01:11;;;;;;;3.20;2.90;;;1.30;99.90;0.10;95509.00;;;;5017296;28;20233;-58
2022/12/04 00:03:41;;;;;;;4.67;3.60;;;1.20;99.90;0.20;95488.00;;;;5017226;28;20221;-56
2022/12/04 00:06:10;;;;;;;2.67;2.47;;;1.20;99.90;0.30;95495.00;;;;5034750;28;20247;-58
2022/12/04 00:08:38;;;;;;;6.67;3.80;;;1.30;99.90;0.30;95482.00;;;;5017275;28;20253;-61
2022/12/04 00:11:07;;;;;;;2.53;2.43;;;1.40;99.90;0.20;95500.00;;;;5016553;28;20550;-56
2022/12/04 00:13:35;;;;;;;4.60;3.30;;;1.30;99.90;0.30;95489.00;;;;5034492;28;20221;-56
2022/12/04 00:16:05;;;;;;;3.67;3.30;;;1.40;99.90;0.30;95505.00;;;;5034543;28;20234;-57
2022/12/04 00:18:32;;;;;;;7.43;4.53;;;1.40;99.90;0.40;95480.00;;;;5034383;28;20229;-57
2022/12/04 00:21:02;;;;;;;10.93;4.83;;;1.40;99.60;0.30;95503.00;;;;5016965;28;20226;-56
2022/12/04 00:23:28;;;;;;;3.57;3.37;;;1.40;99.60;0.30;95489.00;;;;5017401;28;20567;-61
2022/12/04 00:26:00;;;;;;;5.77;3.80;;;1.50;99.70;0.40;95501.00;;;;5034589;28;20530;-57
2022/12/04 00:28:27;;;;;;;3.97;3.67;;;1.40;99.90;0.30;95484.00;;;;5016923;28;20570;-57
2022/12/04 00:30:53;;;;;;;4.23;3.83;;;1.40;99.90;0.20;95486.00;;;;5016682;28;20213;-56
2022/12/04 00:33:20;;;;;;;3.43;3.20;;;1.30;99.90;0.20;95484.00;;;;5016833;28;20211;-60
2022/12/04 00:35:47;;;;;;;4.63;4.33;;;1.20;99.90;0.20;95482.00;;;;5034171;28;20198;-57
2022/12/04 00:38:14;;;;;;;5.80;5.17;;;1.30;99.90;0.20;95468.00;;;;5034111;28;20247;-59
2022/12/04 00:40:49;;;;;;;10.53;3.20;;;1.20;99.90;0.30;95477.00;;;;5016613;28;20297;-57
2022/12/04 00:43:15;;;;;;;5.73;4.43;;;1.40;99.90;0.30;95484.00;;;;5034064;28;20233;-59
2022/12/04 00:45:44;;;;;;;3.30;3.10;;;1.40;99.90;0.30;95485.00;;;;5034279;28;20293;-59
2022/12/04 00:48:11;;;;;;;2.80;2.60;;;1.40;99.90;0.40;95473.00;;;;5016457;28;20267;-57
2022/12/04 00:50:37;;;;;;;3.70;3.40;;;1.50;99.90;0.40;95477.00;;;;5016356;28;20716;-57
2022/12/04 00:53:07;;;;;;;4.93;4.07;;;1.50;99.90;0.30;95469.00;;;;5033996;28;20260;-58
2022/12/04 00:55:37;;;;;;;8.97;4.07;;;1.50;99.90;0.30;95480.00;;;;5033862;28;20236;-56
2022/12/04 00:58:04;;;;;;;8.87;4.33;;;1.50;99.90;0.30;95495.00;;;;5033682;28;20225;-57
2022/12/04 01:00:30;;;;;;;7.40;4.23;;;1.40;99.90;0.40;95487.00;;;;5016449;28;20316;-56
2022/12/04 01:02:57;;;;;;;8.20;4.80;;;1.50;99.90;0.40;95494.00;;;;5016343;28;20251;-57
2022/12/04 01:05:23;;;;;;;4.83;2.93;;;1.60;99.90;0.40;95460.00;;;;5033750;28;20246;-58
2022/12/04 01:07:53;;;;;;;4.23;3.83;;;1.50;99.90;0.40;95477.00;;;;5033600;28;20563;-59
2022/12/04 01:10:20;;;;;;;4.13;3.73;;;1.40;99.90;0.40;95487.00;;;;5016130;28;20727;-56
2022/12/04 01:12:50;;;;;;;4.00;3.50;;;1.60;99.90;0.40;95472.00;;;;5033687;28;20210;-57
2022/12/04 01:15:17;;;;;;;4.53;4.07;;;1.50;99.90;0.40;95494.00;;;;5033859;28;20489;-56
2022/12/04 01:17:44;;;;;;;4.33;4.03;;;1.60;99.90;0.50;95494.00;;;;5033515;28;20205;-56
2022/12/04 01:20:12;;;;;;;4.33;3.77;;;1.60;99.90;0.60;95474.00;;;;5033453;28;20693;-56
2022/12/04 01:22:39;;;;;;;6.40;4.67;;;1.60;99.90;0.60;95492.00;;;;5015324;28;20288;-63
2022/12/04 01:25:06;;;;;;;7.00;4.40;;;1.70;99.90;0.60;95485.00;;;;5016200;28;20226;-63
2022/12/04 01:27:34;;;;;;;3.97;3.67;;;1.70;99.90;0.60;95481.00;;;;5033594;28;20239;-60
2022/12/04 01:30:01;;;;;;;4.93;4.47;;;1.60;99.90;0.60;95476.00;;;;5016212;28;20210;-57
2022/12/04 01:32:28;;;;;;;5.67;4.50;;;1.70;99.90;0.60;95477.00;;;;5034228;28;20195;-60
2022/12/04 01:34:55;;;;;;;4.83;4.37;;;1.70;99.90;0.60;95479.00;;;;5033648;28;20203;-56
2022/12/04 01:37:22;;;;;;;6.67;6.00;;;1.70;99.90;0.70;95468.00;;;;5033160;28;20231;-57
2022/12/04 01:39:48;;;;;;;5.33;4.73;;;1.70;99.90;0.70;95484.00;;;;5033196;28;20200;-57
2022/12/04 01:42:15;;;;;;;3.77;3.47;;;1.80;99.90;0.60;95467.00;;;;5032973;28;20284;-56
2022/12/04 01:45:04;;;;;;;5.10;4.60;;;1.70;99.90;0.70;95479.00;;;;5016032;28;20328;-59
2022/12/04 01:47:30;;;;;;;5.27;4.10;;;1.80;99.90;0.60;95475.00;;;;5032911;28;20281;-57
2022/12/04 01:49:59;;;;;;;5.17;3.60;;;1.60;99.90;0.40;95480.00;;;;5015758;28;20317;-58
2022/12/04 01:52:26;;;;;;;6.40;4.60;;;1.60;99.90;0.50;95481.00;;;;5015648;28;20202;-57
2022/12/04 01:54:59;;;;;;;9.40;5.20;;;1.60;99.90;0.50;95467.00;;;;5033046;28;20208;-57
2022/12/04 01:57:30;;;;;;;4.37;4.07;;;1.60;99.90;0.50;95481.00;;;;5015627;28;20682;-57
2022/12/04 02:00:02;;;;;;;5.23;4.50;;;1.60;99.90;0.60;95479.00;;;;5015534;28;20202;-59
2022/12/04 02:02:34;;;;;;;6.83;4.83;;;1.70;99.90;0.50;95469.00;;;;5015648;28;20525;-57
2022/12/04 02:05:03;;;;;;;4.77;4.37;;;1.70;99.90;0.50;95481.00;;;;5032890;28;20223;-57
2022/12/04 02:07:31;;;;;;;3.47;3.27;;;1.60;99.90;0.40;95465.00;;;;5032934;28;20207;-56
2022/12/04 02:10:02;;;;;;;6.17;5.53;;;1.50;99.90;0.40;95485.00;;;;5032812;28;20314;-56
2022/12/04 02:12:38;;;;;;;3.50;3.23;;;1.50;99.90;0.50;95448.00;;;;5031908;28;20280;-57
2022/12/04 02:15:16;;;;;;;4.60;4.03;;;1.50;99.90;0.50;95467.00;;;;5015302;28;20248;-57
2022/12/04 02:17:55;;;;;;;4.73;3.93;;;1.60;99.90;0.60;95467.00;;;;5032813;28;20212;-57
2022/12/04 02:20:35;;;;;;;4.50;3.83;;;1.60;99.90;0.70;95469.00;;;;5015102;28;20284;-57
2022/12/04 02:23:27;;;;;;;5.47;4.40;;;1.70;99.90;0.70;95449.00;;;;5032785;28;20230;-59
2022/12/04 02:26:27;;;;;;;5.17;3.17;;;1.70;99.90;0.70;95465.00;;;;5032612;28;20289;-57
2022/12/04 02:28:59;;;;;;;16.40;4.03;;;1.70;99.90;0.60;95445.00;;;;5032672;28;20221;-56
2022/12/04 02:31:33;;;;;;;5.90;3.70;;;1.70;99.90;0.40;95441.00;;;;5032329;28;20273;-56
2022/12/04 02:34:06;;;;;;;7.73;6.93;;;1.60;99.90;0.40;95450.00;;;;5035448;28;20636;-57
2022/12/04 02:36:44;;;;;;;11.87;4.83;;;1.60;99.90;0.50;95454.00;;;;5018327;28;20234;-57
2022/12/04 02:39:22;;;;;;;4.23;3.93;;;1.50;99.90;0.50;95453.00;;;;5018512;28;20223;-57
2022/12/04 02:41:58;;;;;;;5.43;5.00;;;1.60;99.90;0.60;95464.00;;;;5036004;28;20351;-57
2022/12/04 02:44:31;;;;;;;2.77;2.57;;;1.70;99.90;0.60;95461.00;;;;5035824;28;20227;-59
2022/12/04 02:47:04;;;;;;;4.27;3.87;;;1.70;99.90;0.50;95461.00;;;;5035932;28;20259;-57
2022/12/04 02:49:38;;;;;;;5.33;3.50;;;1.70;99.90;0.60;95460.00;;;;5035774;28;20218;-57
2022/12/04 02:52:09;;;;;;;4.83;4.00;;;1.70;99.90;0.70;95461.00;;;;5035851;28;20624;-57
2022/12/04 02:54:39;;;;;;;8.13;4.70;;;1.80;99.90;0.70;95460.00;;;;5018347;28;20680;-57
2022/12/04 02:57:12;;;;;;;5.77;4.43;;;1.70;99.90;0.80;95463.00;;;;5018318;28;20227;-58
2022/12/04 02:59:44;;;;;;;6.37;4.57;;;1.80;99.90;0.70;95462.00;;;;5035787;28;20215;-60
2022/12/04 03:02:19;;;;;;;4.27;3.87;;;1.70;99.90;0.70;95451.00;;;;5035669;28;20223;-59
2022/12/04 03:04:49;;;;;;;5.93;4.63;;;1.80;99.90;0.70;95449.00;;;;5035863;28;20293;-58
2022/12/04 03:07:30;;;;;;;4.83;4.40;;;1.80;99.90;0.70;95459.00;;;;5018162;28;20226;-58
2022/12/04 03:10:05;;;;;;;6.73;4.03;;;1.80;99.90;0.70;95431.00;;;;5018033;28;20293;-60
2022/12/04 03:12:43;;;;;;;2.50;2.33;;;1.80;99.90;0.70;95420.00;;;;5035649;28;20212;-57
2022/12/04 03:15:19;;;;;;;4.97;2.97;;;1.70;99.90;0.70;95434.00;;;;5035527;28;20297;-57
2022/12/04 03:17:57;;;;;;;2.80;2.60;;;1.80;99.90;0.70;95427.00;;;;5035410;28;20669;-58
2022/12/04 03:20:25;;;;;;;9.80;5.43;;;1.70;99.90;0.70;95433.00;;;;5017958;28;20201;-59
2022/12/04 03:23:00;;;;;;;3.83;3.53;;;1.70;99.90;0.80;95435.00;;;;5035153;28;20237;-62
2022/12/04 03:25:36;;;;;;;4.70;4.33;;;1.80;99.90;0.60;95430.00;;;;5017994;28;20513;-60
2022/12/04 03:28:10;;;;;;;4.47;4.07;;;1.70;99.90;0.60;95428.00;;;;5018313;28;20292;-59
2022/12/04 03:30:46;;;;;;;3.73;3.43;;;1.70;99.90;0.60;95413.00;;;;5017937;28;20211;-58
2022/12/04 03:33:17;;;;;;;4.53;3.37;;;1.70;99.90;0.80;95424.00;;;;5035157;28;20199;-57
2022/12/04 03:35:54;;;;;;;3.03;2.77;;;1.80;99.90;0.70;95427.00;;;;5035094;28;20213;-56
2022/12/04 03:38:32;;;;;;;3.97;3.67;;;1.80;99.90;0.70;95423.00;;;;5017687;28;20224;-58
2022/12/04 03:41:04;;;;;;;4.43;3.63;;;1.80;99.90;0.70;95427.00;;;;5017634;28;20225;-58
2022/12/04 03:43:38;;;;;;;5.30;4.73;;;1.70;99.70;0.70;95431.00;;;;5017386;28;20630;-58
2022/12/04 03:46:14;;;;;;;4.13;3.17;;;1.70;99.70;0.70;95425.00;;;;5016895;28;20229;-57
2022/12/04 03:48:46;;;;;;;3.53;2.87;;;1.80;99.90;0.70;95405.00;;;;5035271;28;20293;-57
2022/12/04 03:51:19;;;;;;;5.73;4.90;;;1.70;99.90;0.70;95410.00;;;;5035028;28;20229;-58
2022/12/04 03:53:54;;;;;;;4.23;3.07;;;1.70;99.90;0.60;95403.00;;;;5017356;28;20293;-59
2022/12/04 03:56:25;;;;;;;7.13;4.07;;;1.70;99.90;0.70;95412.00;;;;5017542;28;20275;-57
2022/12/04 03:58:59;;;;;;;3.97;2.97;;;1.70;99.90;0.60;95423.00;;;;5017518;28;20202;-58
2022/12/04 04:01:36;;;;;;;3.80;3.50;;;1.70;99.90;0.70;95433.00;;;;5033741;28;20560;-57
2022/12/04 04:04:06;;;;;;;3.93;3.63;;;1.70;99.90;0.60;95438.00;;;;5017576;28;20233;-56
2022/12/04 04:06:39;;;;;;;3.37;2.97;;;1.70;99.90;0.70;95445.00;;;;5034971;28;20236;-57
2022/12/04 04:09:16;;;;;;;5.60;5.10;;;1.70;99.90;0.60;95432.00;;;;5034526;28;20231;-57
2022/12/04 04:11:48;;;;;;;4.43;4.03;;;1.70;99.90;0.50;95434.00;;;;5034870;28;20193;-57
2022/12/04 04:25:42;;;;;;;2.87;2.63;;;1.50;99.90;0.50;95422.00;;;;5017347;28;20297;-56
2022/12/04 04:28:31;;;;;;;4.17;3.60;;;1.50;99.90;0.40;95445.00;;;;5034679;28;20190;-56
2022/12/04 04:31:09;;;;;;;3.13;2.93;;;1.50;99.90;0.40;95454.00;;;;5016831;28;20231;-56
2022/12/04 04:33:48;;;;;;;4.87;2.40;;;1.50;99.90;0.40;95448.00;;;;5016848;28;20270;-57
2022/12/04 04:36:25;;;;;;;3.50;3.20;;;1.50;99.90;0.50;95437.00;;;;5016684;28;20230;-56
2022/12/04 04:39:03;;;;;;;3.13;2.73;;;1.60;99.90;0.40;95463.00;;;;5034249;28;20641;-58
2022/12/04 04:41:41;;;;;;;4.90;4.50;;;1.60;99.90;0.30;95463.00;;;;5016560;28;20257;-58
2022/12/04 04:44:19;;;;;;;2.67;2.47;;;1.40;99.90;0.30;95423.00;;;;5034099;28;20217;-56
2022/12/04 04:46:51;;;;;;;4.73;3.40;;;1.40;99.90;0.40;95420.00;;;;5034063;28;20222;-57
2022/12/04 04:49:24;;;;;;;3.73;3.40;;;1.50;99.90;0.50;95445.00;;;;5016949;28;20207;-56
2022/12/04 04:51:54;;;;;;;3.37;2.90;;;1.50;99.90;0.50;95434.00;;;;5033949;28;20201;-56
2022/12/04 04:54:22;;;;;;;4.37;3.20;;;1.50;99.90;0.50;95436.00;;;;5016613;28;20213;-56
2022/12/04 04:56:49;;;;;;;5.43;4.93;;;1.60;99.90;0.50;95442.00;;;;5033687;28;20205;-57
2022/12/04 04:59:15;;;;;;;5.30;4.73;;;1.60;99.90;0.50;95440.00;;;;5033708;28;20227;-57
2022/12/04 05:01:45;;;;;;;3.23;2.93;;;1.60;99.90;0.60;95434.00;;;;5033724;28;20234;-57
2022/12/04 05:04:12;;;;;;;4.70;4.30;;;1.60;99.90;0.60;95447.00;;;;5033626;28;20238;-57
2022/12/04 05:06:39;;;;;;;2.37;2.17;;;1.70;99.90;0.60;95432.00;;;;5033602;28;20741;-56
2022/12/04 05:09:05;;;;;;;7.03;3.57;;;1.60;99.90;0.50;95450.00;;;;5016214;28;20223;-61
2022/12/04 05:11:32;;;;;;;4.27;3.57;;;1.60;99.90;0.70;95427.00;;;;5033527;28;20199;-57
2022/12/04 05:13:58;;;;;;;5.00;4.60;;;1.70;99.90;0.50;95442.00;;;;5033825;28;20203;-57
2022/12/04 05:16:25;;;;;;;5.87;5.27;;;1.60;99.90;0.50;95436.00;;;;5033437;28;20228;-57
2022/12/04 05:21:36;;;;;;;4.57;3.90;;;1.70;99.90;0.60;95448.00;;;;5015830;28;20295;-59
2022/12/04 05:24:04;;;;;;;5.03;4.20;;;1.60;99.90;0.60;95443.00;;;;5016220;28;20229;-59
2022/12/04 05:26:30;;;;;;;4.10;3.80;;;1.60;99.90;0.60;95434.00;;;;5016110;28;20658;-60
2022/12/04 05:28:56;;;;;;;4.27;3.87;;;1.60;99.90;0.60;95434.00;;;;5033732;28;20215;-59
2022/12/04 05:31:23;;;;;;;4.80;4.07;;;1.60;99.90;0.50;95441.00;;;;5033545;28;20207;-57
2022/12/04 05:33:49;;;;;;;6.33;3.70;;;1.60;99.90;0.50;95424.00;;;;5033476;28;20685;-57
2022/12/04 05:36:16;;;;;;;4.10;3.30;;;1.50;99.90;0.40;95436.00;;;;5016115;28;20283;-56
2022/12/04 05:38:42;;;;;;;6.17;4.33;;;1.60;99.90;0.60;95430.00;;;;5033259;28;20233;-57
2022/12/04 05:41:09;;;;;;;9.03;4.67;;;1.60;99.90;0.50;95435.00;;;;5016119;28;20293;-57
2022/12/04 05:43:36;;;;;;;3.33;3.10;;;1.60;99.90;0.50;95442.00;;;;5033154;28;20225;-57
2022/12/04 05:46:05;;;;;;;2.47;2.37;;;1.60;99.90;0.40;95447.00;;;;5033075;28;20207;-57
2022/12/04 05:48:33;;;;;;;3.90;3.47;;;1.50;99.90;0.40;95436.00;;;;5015754;28;20225;-55
2022/12/04 05:51:00;;;;;;;3.83;3.63;;;1.60;99.90;0.30;95441.00;;;;5033047;28;20194;-57
2022/12/04 05:53:26;;;;;;;8.60;4.03;;;1.50;99.90;0.30;95434.00;;;;5033028;28;20218;-59
2022/12/04 05:55:58;;;;;;;5.10;4.60;;;1.50;99.90;0.40;95427.00;;;;5015816;28;20552;-56
2022/12/04 05:58:26;;;;;;;4.73;3.50;;;1.50;99.90;0.30;95436.00;;;;5032953;28;20207;-56
2022/12/04 06:00:53;;;;;;;3.10;2.93;;;1.50;99.90;0.50;95447.00;;;;5032892;28;20217;-56
2022/12/04 06:03:21;;;;;;;2.83;2.63;;;1.50;99.90;0.30;95447.00;;;;5015667;28;20369;-55
2022/12/04 06:05:47;;;;;;;5.33;4.67;;;1.50;99.90;0.40;95449.00;;;;5032108;28;20642;-57
2022/12/04 06:08:14;;;;;;;2.77;2.57;;;1.50;99.90;0.40;95441.00;;;;5017406;28;20211;-57
2022/12/04 06:10:41;;;;;;;3.40;3.10;;;1.50;99.90;0.30;95453.00;;;;5019173;28;20211;-56
2022/12/04 06:13:08;;;;;;;3.00;2.77;;;1.40;99.90;0.40;95439.00;;;;5019289;28;20245;-57
2022/12/04 06:15:38;;;;;;;2.90;2.70;;;1.40;99.90;0.40;95452.00;;;;5018782;28;20794;-57
2022/12/04 06:18:05;;;;;;;2.77;2.57;;;1.50;99.90;0.40;95462.00;;;;5036130;28;20543;-57
2022/12/04 06:20:32;;;;;;;3.93;3.63;;;1.50;99.90;0.40;95452.00;;;;5018937;28;20225;-57
2022/12/04 06:22:59;;;;;;;3.90;2.83;;;1.50;99.90;0.30;95450.00;;;;5036138;28;20223;-57
2022/12/04 06:25:25;;;;;;;4.83;3.73;;;1.50;99.90;0.40;95445.00;;;;5036147;28;20259;-55
2022/12/04 06:27:52;;;;;;;3.63;2.00;;;1.50;99.90;0.40;95453.00;;;;5019057;28;20221;-57
2022/12/04 06:30:18;;;;;;;1.97;1.87;;;1.50;99.90;0.40;95447.00;;;;5036339;28;20648;-57
2022/12/04 06:32:45;;;;;;;4.00;3.47;;;1.50;99.90;0.40;95459.00;;;;5036078;28;20200;-57
2022/12/04 06:35:12;;;;;;;6.90;2.90;;;1.50;99.90;0.50;95458.00;;;;5018702;28;20555;-58
2022/12/04 06:37:41;;;;;;;3.90;3.33;;;1.50;99.90;0.50;95444.00;;;;5035965;28;20225;-56
2022/12/04 06:40:09;;;;;;;4.50;3.57;;;1.60;99.90;0.40;95459.00;;;;5035832;28;20315;-58
2022/12/04 06:42:35;;;;;;;3.77;3.47;;;1.50;99.90;0.50;95434.00;;;;5035872;28;20227;-57
2022/12/04 06:45:05;;;;;;;2.87;2.67;;;1.60;99.90;0.30;95448.00;;;;5018452;28;20219;-57
2022/12/04 06:47:34;;;;;;;6.13;2.27;;;1.50;99.90;0.20;95451.00;;;;5035895;28;20213;-57
2022/12/04 06:50:02;;;;;;;4.30;3.73;;;1.40;99.90;0.30;95441.00;;;;5035671;28;20205;-57
2022/12/04 06:52:28;;;;;;;6.27;2.70;;;1.40;99.90;0.30;95459.00;;;;5035701;28;20194;-57
2022/12/04 06:54:55;;;;;;;3.03;2.83;;;1.40;99.90;0.30;95444.00;;;;5018511;28;20581;-57
2022/12/04 06:57:21;;;;;;;4.13;3.73;;;1.40;99.90;0.40;95434.00;;;;5018340;28;20230;-57
2022/12/04 06:59:48;;;;;;;2.13;2.03;;;1.40;99.90;0.40;95417.00;;;;5035650;28;20202;-58
2022/12/04 07:02:14;;;;;;;2.97;2.77;;;1.40;99.90;0.40;95443.00;;;;5035453;28;20227;-57
2022/12/04 07:04:41;;;;;;;5.33;3.23;;;1.50;99.90;0.40;95438.00;;;;5035837;28;20214;-62
2022/12/04 07:07:09;;;;;;;3.77;3.47;;;1.50;99.90;0.50;95459.00;;;;5018247;28;20203;-58
2022/12/04 07:09:37;;;;;;;6.67;3.73;;;1.50;99.90;0.30;95464.00;;;;5035486;28;20691;-58
2022/12/04 07:12:05;;;;;;;2.57;2.17;;;1.40;99.90;0.30;95463.00;;;;5018211;28;20295;-57
2022/12/04 07:14:31;;;;;;;2.53;2.43;;;1.40;99.90;0.30;95459.00;;;;5035304;28;20306;-58
2022/12/04 07:16:58;;;;;;;5.13;2.47;;;1.40;99.90;0.30;95469.00;;;;5035347;28;20194;-56
2022/12/04 07:19:24;;;;;;;4.43;3.43;;;1.40;99.90;0.30;95460.00;;;;5033916;28;20318;-60
2022/12/04 07:21:51;;;;;;;3.57;3.37;;;1.40;99.90;0.50;95466.00;;;;5035375;28;20724;-62
2022/12/04 07:24:18;;;;;;;5.23;3.03;;;1.50;99.90;0.50;95466.00;;;;5017792;28;20215;-59
2022/12/04 07:26:45;;;;;;;3.60;3.27;;;1.50;99.90;0.60;95428.00;;;;5035527;28;20290;-57
2022/12/04 07:29:11;;;;;;;3.33;3.13;;;1.70;99.90;0.50;95459.00;;;;5017855;28;20630;-57
2022/12/04 07:31:38;;;;;;;4.53;3.47;;;1.60;99.90;0.60;95458.00;;;;5035176;28;20550;-57
2022/12/04 07:34:04;;;;;;;3.47;3.17;;;1.60;99.90;0.60;95454.00;;;;5035113;28;20231;-57
2022/12/04 07:36:31;;;;;;;3.80;3.50;;;1.70;99.90;0.60;95451.00;;;;5035126;28;20280;-57
2022/12/04 07:39:00;;;;;;;2.67;2.50;;;1.60;99.90;0.60;95453.00;;;;5017648;28;20219;-58
2022/12/04 07:41:27;;;;;;;3.10;2.90;;;1.70;99.90;0.50;95444.00;;;;5035092;28;20242;-57
2022/12/04 07:43:53;;;;;;;5.90;3.83;;;1.70;99.90;0.60;95445.00;;;;5017855;28;20665;-58
2022/12/04 07:46:24;;;;;;;7.03;3.77;;;1.70;99.90;0.60;95445.00;;;;5034966;28;20580;-56
2022/12/04 07:48:51;;;;;;;4.00;3.63;;;1.70;99.90;0.60;95449.00;;;;5017685;28;20211;-57
2022/12/04 07:51:20;;;;;;;6.50;2.47;;;1.70;99.90;0.60;95448.00;;;;5034832;28;20214;-57
2022/12/04 07:53:49;;;;;;;4.37;3.93;;;1.70;99.90;0.60;95432.00;;;;5017358;28;20234;-58
2022/12/04 07:56:18;;;;;;;2.47;2.30;;;1.70;99.90;0.70;95463.00;;;;5034889;28;20214;-57
2022/12/04 07:58:46;;;;;;;2.53;2.43;;;1.80;99.90;0.70;95452.00;;;;5034767;28;20237;-56
2022/12/04 08:01:16;;;;;;;4.57;3.30;;;1.80;99.90;0.70;95428.00;;;;5034988;28;20333;-57
2022/12/04 08:03:47;;;;;;;4.77;3.87;;;1.70;99.90;0.70;95450.00;;;;5017161;28;20222;-57
2022/12/04 08:06:13;;;;;;;7.87;4.93;;;1.80;99.90;0.80;95445.00;;;;5017493;28;20216;-57
2022/12/04 08:08:42;;;;;;;4.57;4.17;;;1.80;99.90;0.80;95450.00;;;;5034707;28;20204;-57
2022/12/04 08:11:11;;;;;;;4.23;3.83;;;1.80;99.90;0.80;95437.00;;;;5034447;28;20234;-57
2022/12/04 08:13:38;;;;;;;3.67;3.33;;;1.80;99.90;0.80;95448.00;;;;5034587;28;20492;-57
2022/12/04 08:16:11;;;;;;;8.10;4.93;;;1.90;99.90;0.80;95463.00;;;;5017125;28;20269;-57
2022/12/04 08:18:40;;;;;;;2.67;2.43;;;1.90;99.90;0.80;95462.00;;;;5034554;28;20298;-56
2022/12/04 08:21:10;;;;;;;5.63;4.43;;;1.80;99.90;0.80;95446.00;;;;5034339;28;20231;-56
2022/12/04 08:23:38;;;;;;;4.47;4.07;;;1.90;99.90;0.70;95479.00;;;;5034178;28;20222;-56
2022/12/04 08:26:06;;;;;;;5.20;4.13;;;1.80;99.90;0.80;95475.00;;;;5016952;28;20194;-56
2022/12/04 08:28:34;;;;;;;4.70;4.23;;;1.80;99.90;0.80;95463.00;;;;5034345;28;20214;-57
2022/12/04 08:31:04;;;;;;;2.80;2.60;;;1.90;99.90;0.90;95485.00;;;;5033982;28;20282;-57
2022/12/04 08:33:32;;;;;;;3.30;3.10;;;1.90;99.90;0.90;95470.00;;;;5016758;28;20280;-57
2022/12/04 08:35:59;;;;;;;4.33;3.73;;;2.00;99.90;0.90;95490.00;;;;5034068;28;20218;-57
2022/12/04 08:38:25;;;;;;;3.70;2.83;;;2.00;99.90;0.90;95479.00;;;;5034085;28;20242;-56
2022/12/04 08:40:52;;;;;;;10.07;4.10;;;2.00;99.90;1.00;95491.00;;;;5034116;28;20261;-57
2022/12/04 08:43:18;;;;;;;4.03;3.07;;;2.10;99.90;0.90;95486.00;;;;5034125;28;20674;-59
2022/12/04 08:45:55;;;;;;;5.00;4.50;;;2.00;99.90;0.80;95482.00;;;;5033971;28;20212;-59
2022/12/04 08:48:21;;;;;;;7.13;3.17;;;1.90;99.90;0.70;95492.00;;;;5034224;28;20238;-59
2022/12/04 08:50:48;;;;;;;6.10;4.53;;;1.80;99.90;0.80;95494.00;;;;5016672;28;20594;-61
2022/12/04 08:53:15;;;;;;;4.43;3.87;;;1.90;99.90;1.00;95481.00;;;;5034380;28;20201;-59
2022/12/04 08:55:41;;;;;;;3.77;2.60;;;1.90;99.90;0.90;95473.00;;;;5016707;28;20321;-57
2022/12/04 08:58:08;;;;;;;4.47;4.10;;;2.00;99.90;0.80;95490.00;;;;5016592;28;20220;-57
2022/12/04 09:00:34;;;;;;;5.17;3.50;;;2.00;99.90;1.00;95494.00;;;;5033858;28;20234;-58
2022/12/04 09:03:01;;;;;;;3.47;3.20;;;2.00;99.90;1.00;95490.00;;;;5016302;28;20237;-58
2022/12/04 09:05:31;;;;;;;3.47;3.27;;;2.10;99.90;0.90;95485.00;;;;5033956;28;20298;-59
2022/12/04 09:07:58;;;;;;;2.30;2.20;;;1.90;99.90;0.90;95491.00;;;;5016528;28;20210;-57
2022/12/04 09:10:24;;;;;;;3.37;2.30;;;1.90;99.90;0.80;95482.00;;;;5033759;28;20208;-57
2022/12/04 09:12:51;;;;;;;3.27;3.07;;;1.90;99.90;0.80;95486.00;;;;5033473;28;20223;-55
2022/12/04 09:15:17;;;;;;;3.90;3.53;;;1.90;99.90;0.90;95491.00;;;;5033595;28;20235;-57
2022/12/04 09:17:44;;;;;;;5.33;3.77;;;1.90;99.90;0.90;95497.00;;;;5033707;28;20630;-57
2022/12/04 09:20:11;;;;;;;6.90;4.67;;;1.90;99.90;1.00;95474.00;;;;5033650;28;20202;-56
2022/12/04 09:22:40;;;;;;;12.03;2.67;;;2.00;99.90;0.90;95489.00;;;;5033445;28;20677;-57
2022/12/04 09:25:08;;;;;;;3.73;3.47;;;2.00;99.90;1.00;95486.00;;;;5033643;28;20208;-57
2022/12/04 09:27:36;;;;;;;4.23;3.87;;;2.00;99.90;1.00;95429.00;;;;5016295;28;20531;-56
2022/12/04 09:30:06;;;;;;;3.10;2.87;;;2.10;99.90;1.10;95495.00;;;;5033479;28;20215;-57
2022/12/04 09:32:33;;;;;;;3.10;2.80;;;2.10;99.90;1.10;95493.00;;;;5016295;28;20534;-56
2022/12/04 09:34:59;;;;;;;4.47;4.10;;;2.20;99.90;1.10;95482.00;;;;5016028;28;20223;-56
2022/12/04 09:37:26;;;;;;;3.70;3.37;;;2.10;99.90;1.10;95490.00;;;;5033405;28;20194;-57
2022/12/04 09:39:52;;;;;;;4.23;3.83;;;2.10;99.90;1.10;95453.00;;;;5016164;28;20258;-57
2022/12/04 09:42:45;;;;;;;3.43;3.03;;;2.20;99.90;1.20;95464.00;;;;5033658;28;20549;-57
2022/12/04 09:45:16;;;;;;;4.37;3.47;;;2.20;99.90;1.00;95465.00;;;;5019434;28;20210;-57
2022/12/04 09:47:47;;;;;;;9.40;2.90;;;2.20;99.90;1.10;95438.00;;;;5019459;28;20211;-57
2022/12/04 09:50:20;;;;;;;5.37;3.33;;;2.10;99.90;1.00;95461.00;;;;5036683;28;20215;-56
2022/12/04 09:52:55;;;;;;;4.13;3.83;;;2.10;99.90;1.00;95469.00;;;;5036743;28;20364;-57
2022/12/04 09:55:27;;;;;;;3.90;3.60;;;2.10;99.90;1.10;95464.00;;;;5036838;28;20218;-58
2022/12/04 09:58:01;;;;;;;2.03;1.93;;;2.20;99.90;1.10;95443.00;;;;5036547;28;20232;-57
2022/12/04 10:00:30;;;;;;;4.53;3.87;;;2.20;99.90;1.10;95426.00;;;;5019356;28;20199;-57
2022/12/04 10:03:02;;;;;;;2.80;2.60;;;2.20;99.90;1.20;95429.00;;;;5019135;28;20235;-56
2022/12/04 10:05:47;;;;;;;8.23;3.57;;;2.20;99.90;1.20;95431.00;;;;5018950;28;20202;-56
2022/12/04 10:08:21;;;;;;;5.07;3.80;;;2.30;99.90;1.30;95428.00;;;;5036220;28;20241;-57
2022/12/04 10:11:02;;;;;;;3.17;2.87;;;2.30;99.90;1.20;95429.00;;;;5036386;28;20203;-56
2022/12/04 10:14:13;;;;;;;3.97;3.50;;;2.30;99.90;1.20;95427.00;;;;5036339;28;20252;-58
2022/12/04 10:17:04;;;;;;;5.27;3.70;;;2.20;99.90;1.10;95425.00;;;;5036359;28;20202;-57
2022/12/04 10:19:43;;;;;;;3.17;2.97;;;2.20;99.90;1.20;95426.00;;;;5018948;28;20655;-56
2022/12/04 10:22:25;;;;;;;5.63;5.13;;;2.20;99.90;1.00;95420.00;;;;5036365;28;20230;-56
2022/12/04 10:25:00;;;;;;;2.40;2.20;;;2.20;99.90;1.20;95423.00;;;;5018988;28;20226;-57
2022/12/04 10:27:31;;;;;;;2.63;2.43;;;2.20;99.90;1.20;95422.00;;;;5036322;28;20523;-59
2022/12/04 10:30:06;;;;;;;4.33;3.97;;;2.30;99.90;1.20;95408.00;;;;5035637;28;20289;-58
2022/12/04 10:32:34;;;;;;;3.77;3.27;;;2.20;99.90;1.20;95396.00;;;;5035944;28;20290;-58
2022/12/04 10:35:18;;;;;;;2.87;2.60;;;2.20;99.90;1.20;95389.00;;;;5036225;28;20285;-57
2022/12/04 10:37:56;;;;;;;3.53;3.33;;;2.20;99.50;1.10;95397.00;;;;5036072;28;20302;-57
2022/12/04 10:40:32;;;;;;;3.53;3.27;;;2.20;98.80;1.20;95403.00;;;;5018743;28;20210;-59
2022/12/04 10:43:13;;;;;;;4.33;3.93;;;2.10;99.50;1.10;95412.00;;;;5036351;28;20230;-59
2022/12/04 10:45:40;;;;;;;2.30;2.20;;;2.10;99.50;1.00;95418.00;;;;5018734;28;20601;-60
2022/12/04 10:48:25;;;;;;;3.10;2.80;;;2.00;99.60;0.90;95410.00;;;;5018648;28;20203;-59
2022/12/04 10:50:51;;;;;;;2.43;2.30;;;2.00;99.90;0.90;95413.00;;;;5036342;28;20228;-58
2022/12/04 10:53:28;;;;;;;3.23;2.30;;;2.00;99.90;1.00;95422.00;;;;5018319;28;20212;-59
2022/12/04 10:55:55;;;;;;;4.27;3.87;;;2.00;99.90;1.10;95424.00;;;;5018547;28;20206;-59
2022/12/04 10:58:21;;;;;;;4.80;3.50;;;2.10;99.90;1.00;95430.00;;;;5035914;28;20206;-59
2022/12/04 11:01:03;;;;;;;4.30;4.00;;;2.10;99.90;1.00;95414.00;;;;5018459;28;20209;-59
2022/12/04 11:03:31;;;;;;;2.93;2.67;;;2.10;99.90;1.10;95419.00;;;;5035627;28;20222;-57
2022/12/04 11:06:01;;;;;;;3.23;2.97;;;2.20;99.90;1.30;95424.00;;;;5035887;28;20234;-57
2022/12/04 11:08:38;;;;;;;3.87;3.53;;;2.30;99.90;1.30;95426.00;;;;5018585;28;20234;-58
2022/12/04 11:11:10;;;;;;;1.77;1.67;;;2.20;99.90;1.30;95419.00;;;;5035609;28;20265;-58
2022/12/04 11:13:37;;;;;;;2.53;2.33;;;2.30;99.90;1.30;95437.00;;;;5018094;28;20705;-57
2022/12/04 11:16:05;;;;;;;3.73;3.43;;;2.30;99.90;1.30;95417.00;;;;5035448;28;20244;-58
2022/12/04 11:18:45;;;;;;;3.73;3.43;;;2.30;99.90;1.30;95430.00;;;;5018109;28;20314;-58
2022/12/04 11:21:16;;;;;;;3.43;3.13;;;2.30;99.90;1.30;95421.00;;;;5035365;28;20231;-58
2022/12/04 11:23:46;;;;;;;4.30;3.90;;;2.40;99.90;1.30;95426.00;;;;5035338;28;20662;-59
2022/12/04 11:26:16;;;;;;;3.13;2.93;;;2.40;99.90;1.30;95437.00;;;;5017893;28;20326;-57
2022/12/04 11:28:50;;;;;;;3.60;3.40;;;2.30;99.90;1.30;95421.00;;;;5035340;28;20232;-57
2022/12/04 11:31:21;;;;;;;5.83;3.80;;;2.30;99.90;1.30;95417.00;;;;5017995;28;20234;-58
2022/12/04 11:33:56;;;;;;;2.03;1.93;;;2.40;99.90;1.20;95424.00;;;;5017809;28;20212;-58
2022/12/04 11:36:28;;;;;;;4.60;3.97;;;2.40;99.90;1.20;95412.00;;;;5035152;28;20227;-58
2022/12/04 11:39:06;;;;;;;3.37;3.07;;;2.30;99.90;1.30;95422.00;;;;5035162;28;20208;-58